createdAt,value
2019-01-23T00:01:41.342Z,0.20
2019-01-23T00:04:07.341Z,0.46
2019-01-23T00:06:33.385Z,0.29
2019-01-23T00:08:59.259Z,0.21
2019-01-23T00:11:25.092Z,0.16
2019-01-23T00:13:52.142Z,0.07
2019-01-23T00:16:17.969Z,0.30
2019-01-23T00:18:43.820Z,0.45
2019-01-23T00:21:09.945Z,0.46
2019-01-23T00:23:35.798Z,0.18
2019-01-23T00:26:03.526Z,0.25
2019-01-23T00:28:29.388Z,0.67
2019-01-23T00:30:55.215Z,0.52
2019-01-23T00:33:23.074Z,0.15
2019-01-23T00:35:49.032Z,0.22
2019-01-23T00:38:14.868Z,0.35
2019-01-23T00:40:41.009Z,0.18
2019-01-23T00:43:08.086Z,0.42
2019-01-23T00:45:33.920Z,0.35
2019-01-23T00:47:59.809Z,0.39
2019-01-23T00:50:25.667Z,0.34
2019-01-23T00:52:51.498Z,0.49
2019-01-23T00:55:17.632Z,0.39
2019-01-23T00:57:43.493Z,0.34
2019-01-23T01:00:13.121Z,0.22
2019-01-23T01:02:38.974Z,0.14
2019-01-23T01:05:04.831Z,0.30
2019-01-23T01:07:30.661Z,0.36
2019-01-23T01:09:56.501Z,0.47
2019-01-23T01:12:24.632Z,0.36
2019-01-23T01:14:50.495Z,0.23
2019-01-23T01:17:16.429Z,0.28
2019-01-23T01:19:42.286Z,0.44
2019-01-23T01:22:08.115Z,0.22
2019-01-23T01:24:33.946Z,0.30
2019-01-23T01:27:01.406Z,0.04
2019-01-23T01:29:27.249Z,0.22
2019-01-23T01:31:53.102Z,0.33
2019-01-23T01:34:19.039Z,0.54
2019-01-23T01:36:44.893Z,0.26
2019-01-23T01:39:10.730Z,0.23
2019-01-23T01:41:36.570Z,0.27
2019-01-23T01:44:04.318Z,0.62
2019-01-23T01:46:30.142Z,0.48
2019-01-23T01:48:56.031Z,0.07
2019-01-23T01:51:21.873Z,0.07
2019-01-23T01:53:47.714Z,0.21
2019-01-23T01:56:13.574Z,0.18
2019-01-23T01:58:39.445Z,0.32
2019-01-23T02:01:05.245Z,0.12
2019-01-23T02:03:31.350Z,0.29
2019-01-23T02:05:59.804Z,0.15
2019-01-23T02:08:25.640Z,0.41
2019-01-23T02:10:51.536Z,0.56
2019-01-23T02:13:17.376Z,0.31
2019-01-23T02:15:43.208Z,0.26
2019-01-23T02:18:09.068Z,0.15
2019-01-23T02:20:39.745Z,0.14
2019-01-23T02:23:05.799Z,0.14
2019-01-23T02:25:31.639Z,0.44
2019-01-23T02:28:00.396Z,0.42
2019-01-23T02:30:26.269Z,0.21
2019-01-23T02:32:52.249Z,0.13
2019-01-23T02:35:20.512Z,0.22
2019-01-23T02:37:46.363Z,0.25
2019-01-23T02:40:17.513Z,0.29
2019-01-23T02:42:43.594Z,0.36
2019-01-23T02:45:09.549Z,0.10
2019-01-23T02:47:35.414Z,0.38
2019-01-23T02:50:03.347Z,0.32
2019-01-23T02:52:29.211Z,0.27
2019-01-23T02:54:58.113Z,0.40
2019-01-23T02:57:23.981Z,0.53
2019-01-23T02:59:49.814Z,0.41
2019-01-23T03:02:15.643Z,0.43
2019-01-23T03:04:41.503Z,0.25
2019-01-23T03:07:07.359Z,0.54
2019-01-23T03:09:38.412Z,0.46
2019-01-23T03:12:04.270Z,0.45
2019-01-23T03:14:31.606Z,0.50
2019-01-23T03:16:57.443Z,0.43
2019-01-23T03:19:23.575Z,0.28
2019-01-23T03:21:51.309Z,0.15
2019-01-23T03:24:17.427Z,0.23
2019-01-23T03:26:43.280Z,0.08
2019-01-23T03:29:11.023Z,0.22
2019-01-23T03:31:36.854Z,0.19
2019-01-23T03:34:02.733Z,0.29
2019-01-23T03:36:28.569Z,0.26
2019-01-23T03:38:54.396Z,0.19
2019-01-23T03:41:20.278Z,0.04
2019-01-23T03:43:48.285Z,0.21
2019-01-23T03:46:14.114Z,0.15
2019-01-23T03:48:39.955Z,0.18
2019-01-23T03:51:05.810Z,0.02
2019-01-23T03:53:31.640Z,0.18
2019-01-23T03:55:59.395Z,0.18
2019-01-23T03:58:25.234Z,0.23
2019-01-23T04:00:57.414Z,-0.07
2019-01-23T04:03:24.480Z,0.04
2019-01-23T04:05:50.329Z,0.09
2019-01-23T04:08:18.066Z,-0.05
2019-01-23T04:10:44.020Z,-0.01
2019-01-23T04:13:09.822Z,0.17
2019-01-23T04:15:35.646Z,0.07
2019-01-23T04:18:01.488Z,0.05
2019-01-23T04:20:27.298Z,0.00
2019-01-23T04:22:53.390Z,-0.16
2019-01-23T04:25:25.043Z,0.11
2019-01-23T04:27:50.861Z,0.05
2019-01-23T04:30:18.983Z,-0.14
2019-01-23T04:32:44.810Z,0.06
2019-01-23T04:35:10.614Z,-0.14
2019-01-23T04:37:36.411Z,-0.09
2019-01-23T04:40:05.450Z,-0.10
2019-01-23T04:42:33.235Z,-0.16
2019-01-23T04:45:01.277Z,-0.11
2019-01-23T04:47:27.114Z,-0.16
2019-01-23T04:49:52.917Z,-0.20
2019-01-23T04:52:39.045Z,-0.25
2019-01-23T04:55:05.651Z,-0.21
2019-01-23T04:57:31.457Z,-0.14
2019-01-23T04:59:57.316Z,-0.21
2019-01-23T05:02:23.228Z,-0.44
2019-01-23T05:04:49.040Z,-0.25
2019-01-23T05:07:14.876Z,-0.19
2019-01-23T05:09:40.698Z,-0.28
2019-01-23T05:12:06.502Z,-0.30
2019-01-23T05:14:32.454Z,-0.11
2019-01-23T05:16:58.255Z,-0.26
2019-01-23T05:19:24.100Z,-0.15
2019-01-23T05:21:49.910Z,-0.23
2019-01-23T05:24:15.714Z,-0.22
2019-01-23T05:26:41.824Z,-0.42
2019-01-23T05:29:07.679Z,-0.17
2019-01-23T05:31:33.484Z,-0.32
2019-01-23T05:33:59.491Z,-0.39
2019-01-23T05:36:25.319Z,-0.49
2019-01-23T05:38:57.921Z,-0.32
2019-01-23T05:41:23.975Z,-0.43
2019-01-23T05:43:55.155Z,-0.53
2019-01-23T05:46:24.013Z,-0.34
2019-01-23T05:48:49.814Z,-0.54
2019-01-23T05:51:15.668Z,-0.59
2019-01-23T05:53:41.634Z,-0.68
2019-01-23T05:56:07.468Z,-0.78
2019-01-23T05:58:33.271Z,-0.81
2019-01-23T06:01:00.991Z,-0.81
2019-01-23T06:03:26.820Z,-1.01
2019-01-23T06:05:52.635Z,-0.82
2019-01-23T06:08:18.556Z,-0.94
2019-01-23T06:10:44.382Z,-0.93
2019-01-23T06:13:12.664Z,-1.02
2019-01-23T06:15:38.463Z,-1.07
2019-01-23T06:18:08.976Z,-0.96
2019-01-23T06:20:34.818Z,-1.16
2019-01-23T06:23:00.693Z,-1.35
2019-01-23T06:25:26.516Z,-1.42
2019-01-23T06:27:52.350Z,-1.34
2019-01-23T06:30:23.966Z,-1.45
2019-01-23T06:32:49.799Z,-1.50
2019-01-23T06:35:15.627Z,-1.40
2019-01-23T06:37:44.073Z,-1.53
2019-01-23T06:40:11.819Z,-1.58
2019-01-23T06:42:39.560Z,-1.52
2019-01-23T06:45:08.763Z,-1.66
2019-01-23T06:47:34.607Z,-1.45
2019-01-23T06:50:00.671Z,-1.43
2019-01-23T06:52:26.453Z,-1.48
2019-01-23T06:54:52.336Z,-1.44
2019-01-23T06:57:18.145Z,-1.56
2019-01-23T06:59:44.038Z,-1.44
2019-01-23T07:02:11.769Z,-1.40
2019-01-23T07:04:42.479Z,-1.40
2019-01-23T07:07:08.299Z,-1.50
2019-01-23T07:09:34.286Z,-1.29
2019-01-23T07:12:00.085Z,-1.45
2019-01-23T07:14:25.915Z,-1.46
2019-01-23T07:16:55.849Z,-1.69
2019-01-23T07:19:21.692Z,-1.84
2019-01-23T07:21:49.424Z,-1.86
2019-01-23T07:24:17.126Z,-1.72
2019-01-23T07:26:42.939Z,-1.77
2019-01-23T07:29:08.770Z,-1.67
2019-01-23T07:31:34.587Z,-1.62
2019-01-23T07:34:00.659Z,-1.54
2019-01-23T07:36:26.503Z,-1.89
2019-01-23T07:38:52.405Z,-1.87
2019-01-23T07:41:18.259Z,-1.86
2019-01-23T07:43:44.452Z,-1.97
2019-01-23T07:46:13.020Z,-1.93
2019-01-23T07:48:38.827Z,-1.96
2019-01-23T07:51:04.645Z,-1.97
2019-01-23T07:53:40.826Z,-2.11
2019-01-23T07:56:06.643Z,-2.31
2019-01-23T07:58:32.463Z,-2.04
2019-01-23T08:00:58.302Z,-1.87
2019-01-23T08:03:26.516Z,-1.68
2019-01-23T08:05:52.383Z,-1.87
2019-01-23T08:08:18.226Z,-1.97
2019-01-23T08:10:44.034Z,-2.04
2019-01-23T08:13:12.086Z,-2.32
2019-01-23T08:15:39.596Z,-2.20
2019-01-23T08:18:08.016Z,-1.95
2019-01-23T08:20:33.851Z,-2.22
2019-01-23T08:22:59.984Z,-1.88
2019-01-23T08:25:25.810Z,-2.03
2019-01-23T08:27:51.626Z,-2.01
2019-01-23T08:30:19.346Z,-2.12
2019-01-23T08:32:45.176Z,-1.81
2019-01-23T08:35:14.584Z,-1.91
2019-01-23T08:37:40.393Z,-2.00
2019-01-23T08:40:09.613Z,-1.85
2019-01-23T08:42:36.620Z,-1.94
2019-01-23T08:45:05.339Z,-1.89
2019-01-23T08:47:31.147Z,-1.94
2019-01-23T08:49:57.002Z,-1.89
2019-01-23T08:52:22.835Z,-1.48
2019-01-23T08:54:48.642Z,-1.77
2019-01-23T08:57:16.459Z,-1.89
2019-01-23T08:59:42.357Z,-1.66
2019-01-23T09:02:09.167Z,-1.55
2019-01-23T09:04:34.994Z,-1.28
2019-01-23T09:07:00.793Z,-1.32
2019-01-23T09:09:26.600Z,-1.09
2019-01-23T09:11:52.431Z,-1.05
2019-01-23T09:14:18.452Z,-1.14
2019-01-23T09:16:44.271Z,-0.80
2019-01-23T09:19:10.092Z,-0.73
2019-01-23T09:21:35.939Z,-0.61
2019-01-23T09:24:01.831Z,-0.61
2019-01-23T09:26:27.670Z,-0.63
2019-01-23T09:28:56.665Z,-0.66
2019-01-23T09:31:53.186Z,-0.34
2019-01-23T09:34:29.264Z,-0.38
2019-01-23T09:37:01.693Z,-0.29
2019-01-23T09:39:37.350Z,0.00
2019-01-23T09:42:16.243Z,-0.05
2019-01-23T09:45:06.097Z,0.06
2019-01-23T09:47:44.992Z,0.08
2019-01-23T09:50:32.475Z,0.07
2019-01-23T09:53:03.659Z,0.15
2019-01-23T09:55:29.628Z,0.43
2019-01-23T09:57:55.434Z,0.49
2019-01-23T10:00:27.768Z,0.72
2019-01-23T10:02:55.729Z,0.54
2019-01-23T10:05:24.322Z,0.78
2019-01-23T10:07:52.182Z,0.91
2019-01-23T10:10:19.989Z,1.21
2019-01-23T10:12:46.101Z,1.20
2019-01-23T10:15:18.033Z,0.90
2019-01-23T10:17:43.834Z,0.71
2019-01-23T10:20:09.652Z,0.77
2019-01-23T10:22:35.634Z,0.98
2019-01-23T10:25:01.444Z,0.96
2019-01-23T10:27:27.254Z,1.46
2019-01-23T10:29:53.090Z,1.59
2019-01-23T10:32:18.916Z,1.47
2019-01-23T10:34:44.715Z,0.82
2019-01-23T10:37:10.549Z,0.66
2019-01-23T10:39:36.357Z,0.77
2019-01-23T10:42:02.278Z,1.09
2019-01-23T10:44:28.325Z,0.94
2019-01-23T10:46:54.183Z,0.59
2019-01-23T10:49:20.026Z,1.04
2019-01-23T10:51:45.857Z,0.83
2019-01-23T10:54:11.673Z,0.54
2019-01-23T10:56:37.483Z,0.49
2019-01-23T10:59:09.338Z,0.54
2019-01-23T11:01:35.168Z,0.77
2019-01-23T11:04:01.005Z,0.72
2019-01-23T11:06:26.842Z,0.93
2019-01-23T11:08:52.654Z,0.66
2019-01-23T11:11:18.458Z,0.75
2019-01-23T11:13:44.608Z,0.79
2019-01-23T11:16:10.412Z,0.79
2019-01-23T11:18:36.237Z,0.78
2019-01-23T11:21:02.057Z,0.77
2019-01-23T11:23:27.864Z,0.71
2019-01-23T11:25:53.692Z,0.71
2019-01-23T11:28:19.503Z,0.65
2019-01-23T11:30:45.327Z,0.85
2019-01-23T11:33:11.364Z,0.72
2019-01-23T11:35:37.177Z,0.99
2019-01-23T11:38:02.981Z,0.66
2019-01-23T11:40:29.904Z,1.27
2019-01-23T11:42:55.965Z,0.72
2019-01-23T11:45:21.783Z,0.87
2019-01-23T11:47:47.592Z,0.69
2019-01-23T11:50:21.164Z,0.68
2019-01-23T11:52:43.149Z,0.68
2019-01-23T11:55:14.625Z,0.67
2019-01-23T11:57:40.432Z,0.73
2019-01-23T12:00:17.978Z,0.64
2019-01-23T12:02:43.795Z,0.50
2019-01-23T12:05:11.797Z,0.64
2019-01-23T12:07:37.635Z,0.60
2019-01-23T12:10:12.311Z,0.63
2019-01-23T12:12:43.040Z,0.65
2019-01-23T12:15:12.325Z,0.47
2019-01-23T12:17:40.877Z,0.51
2019-01-23T12:20:08.500Z,0.67
2019-01-23T12:22:34.307Z,0.71
2019-01-23T12:25:02.346Z,0.93
2019-01-23T12:27:28.176Z,1.19
2019-01-23T12:29:53.990Z,0.55
2019-01-23T12:32:19.825Z,0.91
2019-01-23T12:34:48.547Z,0.99
2019-01-23T12:37:17.273Z,0.42
2019-01-23T12:39:43.084Z,0.53
2019-01-23T12:42:08.952Z,1.13
2019-01-23T12:44:34.996Z,1.10
2019-01-23T12:47:03.718Z,1.28
2019-01-23T12:49:29.547Z,0.86
2019-01-23T12:51:55.390Z,0.53
2019-01-23T12:54:21.455Z,0.31
2019-01-23T12:56:47.284Z,0.19
2019-01-23T12:59:13.126Z,0.43
2019-01-23T13:01:42.215Z,0.30
2019-01-23T13:04:06.692Z,0.27
2019-01-23T13:06:35.684Z,0.55
2019-01-23T13:09:05.405Z,0.46
2019-01-23T13:11:33.100Z,0.50
2019-01-23T13:13:58.951Z,0.89
2019-01-23T13:16:27.216Z,0.44
2019-01-23T13:18:53.014Z,0.29
2019-01-23T13:21:18.855Z,0.13
2019-01-23T13:23:47.440Z,0.52
2019-01-23T13:26:13.259Z,0.60
2019-01-23T13:28:39.062Z,0.42
2019-01-23T13:31:04.927Z,0.18
2019-01-23T13:33:30.704Z,0.46
2019-01-23T13:35:56.502Z,0.14
2019-01-23T13:38:22.336Z,0.56
2019-01-23T13:40:50.371Z,0.14
2019-01-23T13:43:16.180Z,0.53
2019-01-23T13:45:42.006Z,0.76
2019-01-23T13:48:07.818Z,0.97
2019-01-23T13:50:33.622Z,0.77
2019-01-23T13:53:02.497Z,0.80
2019-01-23T13:55:28.312Z,0.68
2019-01-23T13:57:54.115Z,0.87
2019-01-23T14:00:37.123Z,1.00
2019-01-23T14:03:03.703Z,0.77
2019-01-23T14:05:29.517Z,0.91
2019-01-23T14:07:57.254Z,0.88
2019-01-23T14:10:23.063Z,0.80
2019-01-23T14:12:49.112Z,0.99
2019-01-23T14:15:27.656Z,0.67
2019-01-23T14:17:53.480Z,0.55
2019-01-23T14:20:19.260Z,0.64
2019-01-23T14:22:45.330Z,0.45
2019-01-23T14:25:13.547Z,0.78
2019-01-23T14:27:39.352Z,0.46
2019-01-23T14:30:08.993Z,1.01
2019-01-23T14:32:34.801Z,0.62
2019-01-23T14:35:00.673Z,0.71
2019-01-23T14:37:26.521Z,0.74
2019-01-23T14:39:55.241Z,0.78
2019-01-23T14:42:26.306Z,1.19
2019-01-23T14:44:52.820Z,1.43
2019-01-23T14:47:18.623Z,1.18
2019-01-23T14:49:44.451Z,1.42
2019-01-23T14:52:10.295Z,1.22
2019-01-23T14:54:36.139Z,1.29
2019-01-23T14:57:01.950Z,1.45
2019-01-23T14:59:27.783Z,1.64
2019-01-23T15:01:53.603Z,0.99
2019-01-23T15:04:19.402Z,1.08
2019-01-23T15:06:47.459Z,1.19
2019-01-23T15:09:13.263Z,1.06
2019-01-23T15:11:39.072Z,0.71
2019-01-23T15:14:05.002Z,0.82
2019-01-23T15:16:30.843Z,1.12
2019-01-23T15:18:56.699Z,0.98
2019-01-23T15:21:22.515Z,0.91
2019-01-23T15:23:48.407Z,1.10
2019-01-23T15:26:14.222Z,0.45
2019-01-23T15:28:40.044Z,0.68
2019-01-23T15:31:05.902Z,0.45
2019-01-23T15:33:31.710Z,0.75
2019-01-23T15:35:57.529Z,0.73
2019-01-23T15:38:23.335Z,0.64
2019-01-23T15:40:49.172Z,0.74
2019-01-23T15:43:15.182Z,1.10
2019-01-23T15:45:44.047Z,1.04
2019-01-23T15:48:09.860Z,0.62
2019-01-23T15:50:35.729Z,0.67
2019-01-23T15:53:09.128Z,0.54
2019-01-23T15:55:34.926Z,0.92
2019-01-23T15:58:00.760Z,0.41
2019-01-23T16:00:30.741Z,0.23
2019-01-23T16:02:59.352Z,0.35
2019-01-23T16:05:27.134Z,0.85
2019-01-23T16:07:52.920Z,0.41
2019-01-23T16:10:20.745Z,0.19
2019-01-23T16:12:46.655Z,0.36
2019-01-23T16:15:17.162Z,0.61
2019-01-23T16:17:43.085Z,0.37
2019-01-23T16:20:10.628Z,0.21
2019-01-23T16:22:36.439Z,0.45
2019-01-23T16:25:03.964Z,0.58
2019-01-23T16:27:29.815Z,0.34
2019-01-23T16:29:55.621Z,0.46
2019-01-23T16:32:23.346Z,0.40
2019-01-23T16:34:49.158Z,0.41
2019-01-23T16:37:14.971Z,0.31
2019-01-23T16:39:42.176Z,0.48
2019-01-23T16:42:09.891Z,0.70
2019-01-23T16:44:38.677Z,0.68
2019-01-23T16:47:04.513Z,0.55
2019-01-23T16:49:32.468Z,0.41
2019-01-23T16:51:58.275Z,0.21
2019-01-23T16:54:24.110Z,0.41
2019-01-23T16:56:52.555Z,0.22
2019-01-23T16:59:18.492Z,0.60
2019-01-23T17:01:44.259Z,0.51
2019-01-23T17:04:12.955Z,0.74
2019-01-23T17:06:39.074Z,0.21
2019-01-23T17:09:05.894Z,0.28
2019-01-23T17:11:36.648Z,0.13
2019-01-23T17:14:04.394Z,-0.01
2019-01-23T17:16:30.381Z,0.09
2019-01-23T17:18:56.220Z,0.46
2019-01-23T17:21:23.920Z,0.62
2019-01-23T17:23:49.963Z,0.15
2019-01-23T17:26:15.771Z,0.34
2019-01-23T17:28:41.605Z,0.20
2019-01-23T17:31:07.535Z,0.00
2019-01-23T17:33:33.343Z,0.33
2019-01-23T17:35:59.479Z,0.14
2019-01-23T17:38:25.356Z,0.22
2019-01-23T17:40:51.203Z,0.41
2019-01-23T17:43:19.074Z,0.34
2019-01-23T17:45:44.894Z,0.55
2019-01-23T17:48:10.866Z,0.04
2019-01-23T17:50:36.690Z,0.09
2019-01-23T17:53:07.724Z,0.26
2019-01-23T17:55:35.830Z,0.22
2019-01-23T17:58:04.403Z,0.28
2019-01-23T18:00:32.131Z,0.47
2019-01-23T18:03:00.046Z,0.35
2019-01-23T18:05:26.148Z,0.33
2019-01-23T18:07:52.081Z,0.39
2019-01-23T18:10:17.933Z,0.10
2019-01-23T18:12:43.743Z,-0.03
2019-01-23T18:15:18.507Z,0.34
2019-01-23T18:17:47.083Z,0.33
2019-01-23T18:20:16.056Z,0.56
2019-01-23T18:22:41.934Z,0.50
2019-01-23T18:25:08.750Z,0.69
2019-01-23T18:27:34.686Z,0.63
2019-01-23T18:30:01.473Z,0.77
2019-01-23T18:32:27.284Z,0.47
2019-01-23T18:35:15.244Z,0.01
2019-01-23T18:37:56.841Z,0.42
2019-01-23T18:40:38.277Z,-0.02
2019-01-23T18:43:24.674Z,0.49
2019-01-23T18:46:11.132Z,-0.15
2019-01-23T18:49:07.772Z,0.39
2019-01-23T18:51:40.420Z,0.44
2019-01-23T18:54:06.502Z,0.42
2019-01-23T18:56:32.511Z,0.22
2019-01-23T18:58:59.604Z,0.52
2019-01-23T19:01:27.339Z,0.55
2019-01-23T19:03:53.200Z,0.26
2019-01-23T19:06:19.021Z,0.32
2019-01-23T19:08:44.888Z,-0.01
2019-01-23T19:11:12.705Z,0.21
2019-01-23T19:13:38.824Z,0.16
2019-01-23T19:16:04.634Z,0.35
2019-01-23T19:18:30.430Z,-0.12
2019-01-23T19:20:56.263Z,0.20
2019-01-23T19:23:22.174Z,0.11
2019-01-23T19:25:47.967Z,-0.07
2019-01-23T19:28:13.882Z,0.46
2019-01-23T19:30:39.680Z,-0.07
2019-01-23T19:33:13.673Z,0.00
2019-01-23T19:35:39.819Z,0.20
2019-01-23T19:38:05.631Z,0.52
2019-01-23T19:40:34.554Z,-0.02
2019-01-23T19:43:00.391Z,0.31
2019-01-23T19:45:26.199Z,-0.09
2019-01-23T19:47:52.108Z,-0.09
2019-01-23T19:50:18.047Z,0.33
2019-01-23T19:52:43.968Z,-0.06
2019-01-23T19:55:14.476Z,0.23
2019-01-23T19:57:40.302Z,0.27
2019-01-23T20:00:13.342Z,0.40
2019-01-23T20:02:39.326Z,-0.20
2019-01-23T20:05:09.024Z,-0.29
2019-01-23T20:07:36.070Z,-0.35
2019-01-23T20:10:04.584Z,0.06
2019-01-23T20:12:32.621Z,-0.18
2019-01-23T20:14:58.535Z,-0.18
2019-01-23T20:17:24.455Z,0.23
2019-01-23T20:19:52.917Z,-0.25
2019-01-23T20:22:18.720Z,-0.27
2019-01-23T20:24:46.526Z,-0.30
2019-01-23T20:27:12.763Z,-0.28
2019-01-23T20:29:38.584Z,-0.26
2019-01-23T20:32:04.391Z,0.04
2019-01-23T20:34:32.532Z,-0.09
2019-01-23T20:36:58.339Z,-0.30
2019-01-23T20:39:24.134Z,-0.41
2019-01-23T20:41:49.999Z,-0.34
2019-01-23T20:44:16.022Z,-0.33
2019-01-23T20:46:41.852Z,-0.23
2019-01-23T20:49:09.639Z,-0.29
2019-01-23T20:51:35.460Z,-0.42
2019-01-23T20:54:01.277Z,-0.29
2019-01-23T20:56:27.130Z,-0.47
2019-01-23T20:58:52.986Z,-0.56
2019-01-23T21:01:18.789Z,0.07
2019-01-23T21:03:44.890Z,-0.02
2019-01-23T21:06:10.774Z,-0.39
2019-01-23T21:08:36.592Z,-0.15
2019-01-23T21:11:03.699Z,-0.03
2019-01-23T21:13:29.837Z,-0.49
2019-01-23T21:15:55.636Z,-0.49
2019-01-23T21:18:21.469Z,-0.49
2019-01-23T21:20:47.284Z,-0.36
2019-01-23T21:23:13.092Z,-0.45
2019-01-23T21:25:38.911Z,-0.60
2019-01-23T21:28:05.956Z,-0.16
2019-01-23T21:30:32.987Z,-0.53
2019-01-23T21:33:01.635Z,-0.49
2019-01-23T21:35:27.443Z,-0.40
2019-01-23T21:36:49.118Z,0.05
2019-01-23T21:37:10.436Z,-0.27
2019-01-23T21:37:31.359Z,-0.44
2019-01-23T21:37:52.285Z,-0.46
2019-01-23T21:38:13.200Z,-0.53
2019-01-23T21:38:34.098Z,-0.54
2019-01-23T21:38:55.017Z,-0.59
2019-01-23T21:39:16.014Z,-0.64
2019-01-23T21:39:36.911Z,-0.62
2019-01-23T21:39:57.823Z,-0.66
2019-01-23T21:40:21.451Z,-0.67
2019-01-23T21:40:42.342Z,-0.63
2019-01-23T21:41:03.286Z,-0.55
2019-01-23T21:41:24.192Z,-0.61
2019-01-23T21:41:45.096Z,-0.61
2019-01-23T21:42:06.032Z,-0.70
2019-01-23T21:42:26.946Z,-0.59
2019-01-23T21:42:47.849Z,-0.44
2019-01-23T21:43:08.744Z,-0.27
2019-01-23T21:43:29.651Z,-0.12
2019-01-23T21:43:50.553Z,-0.02
2019-01-23T21:44:13.359Z,0.09
2019-01-23T21:44:34.260Z,0.09
2019-01-23T21:44:55.171Z,-0.02
2019-01-23T21:45:18.608Z,-0.28
2019-01-23T21:45:39.516Z,-0.24
2019-01-23T21:46:00.448Z,-0.10
2019-01-23T21:46:23.911Z,-0.01
2019-01-23T21:46:44.817Z,-0.11
2019-01-23T21:47:05.712Z,-0.19
2019-01-23T21:47:26.607Z,-0.34
2019-01-23T21:47:49.121Z,-0.21
2019-01-23T21:48:10.071Z,-0.15
2019-01-23T21:48:31.023Z,-0.14
2019-01-23T21:48:52.027Z,-0.17
2019-01-23T21:49:12.928Z,-0.33
2019-01-23T21:49:33.850Z,-0.24
2019-01-23T21:49:54.769Z,-0.21
2019-01-23T21:50:20.820Z,-0.26
2019-01-23T21:50:41.722Z,-0.33
2019-01-23T21:51:02.622Z,-0.43
2019-01-23T21:51:23.522Z,-0.46
2019-01-23T21:51:44.459Z,-0.50
2019-01-23T21:52:05.359Z,-0.47
2019-01-23T21:52:28.883Z,-0.43
2019-01-23T21:52:49.877Z,-0.48
2019-01-23T21:53:10.768Z,-0.63
2019-01-23T21:53:31.671Z,-0.64
2019-01-23T21:53:52.680Z,-0.55
2019-01-23T21:54:13.637Z,-0.63
2019-01-23T21:54:34.541Z,-0.50
2019-01-23T21:54:58.249Z,-0.42
2019-01-23T21:55:22.078Z,-0.28
2019-01-23T21:55:42.982Z,-0.11
2019-01-23T21:56:03.923Z,-0.03
2019-01-23T21:56:24.816Z,-0.16
2019-01-23T21:56:45.736Z,-0.07
2019-01-23T21:57:06.663Z,-0.02
2019-01-23T21:57:29.546Z,-0.21
2019-01-23T21:57:50.960Z,-0.38
2019-01-23T21:58:11.862Z,-0.29
2019-01-23T21:58:32.782Z,-0.23
2019-01-23T21:58:56.309Z,-0.19
2019-01-23T21:59:17.203Z,-0.26
2019-01-23T21:59:38.153Z,-0.20
2019-01-23T21:59:59.148Z,-0.19
2019-01-23T22:00:23.361Z,-0.49
2019-01-23T22:00:44.549Z,-0.58
2019-01-23T22:01:10.219Z,-0.64
2019-01-23T22:01:31.182Z,-0.64
2019-01-23T22:01:52.072Z,-0.73
2019-01-23T22:02:13.127Z,-0.74
2019-01-23T22:02:35.276Z,-0.72
2019-01-23T22:03:01.503Z,-0.71
2019-01-23T22:03:25.023Z,-0.67
2019-01-23T22:03:49.420Z,-0.72
2019-01-23T22:04:10.510Z,-0.61
2019-01-23T22:04:31.395Z,-0.44
2019-01-23T22:04:52.301Z,-0.30
2019-01-23T22:05:13.316Z,-0.19
2019-01-23T22:05:34.224Z,-0.11
2019-01-23T22:05:55.127Z,-0.24
2019-01-23T22:06:18.821Z,-0.47
2019-01-23T22:06:39.727Z,-0.58
2019-01-23T22:07:00.625Z,-0.66
2019-01-23T22:07:21.527Z,-0.54
2019-01-23T22:07:42.475Z,-0.32
2019-01-23T22:08:03.377Z,-0.31
2019-01-23T22:08:24.335Z,-0.28
2019-01-23T22:08:45.250Z,-0.20
2019-01-23T22:09:06.138Z,-0.16
2019-01-23T22:09:27.044Z,-0.14
2019-01-23T22:10:10.658Z,-0.27
2019-01-23T22:10:31.556Z,-0.32
2019-01-23T22:10:52.459Z,-0.18
2019-01-23T22:11:13.444Z,-0.51
2019-01-23T22:11:34.347Z,-0.68
2019-01-23T22:11:55.236Z,-0.60
2019-01-23T22:12:16.138Z,-0.61
2019-01-23T22:12:37.061Z,-0.57
2019-01-23T22:12:57.994Z,-0.55
2019-01-23T22:13:18.902Z,-0.42
2019-01-23T22:13:39.800Z,-0.46
2019-01-23T22:14:00.725Z,-0.45
2019-01-23T22:14:23.536Z,-0.47
2019-01-23T22:14:44.443Z,-0.58
2019-01-23T22:15:12.020Z,-0.52
2019-01-23T22:15:33.030Z,-0.62
2019-01-23T22:15:54.029Z,-0.71
2019-01-23T22:16:14.924Z,-0.69
2019-01-23T22:16:38.734Z,-0.78
2019-01-23T22:17:04.572Z,-0.77
2019-01-23T22:17:25.457Z,-0.78
2019-01-23T22:17:46.378Z,-0.81
2019-01-23T22:18:07.289Z,-0.83
2019-01-23T22:18:28.200Z,-0.82
2019-01-23T22:18:49.116Z,-0.80
2019-01-23T22:19:10.018Z,-0.89
2019-01-23T22:19:30.952Z,-0.76
2019-01-23T22:19:51.861Z,-0.66
2019-01-23T22:20:15.328Z,-0.71
2019-01-23T22:20:36.227Z,-0.66
2019-01-23T22:20:57.129Z,-0.67
2019-01-23T22:21:18.037Z,-0.63
2019-01-23T22:21:38.945Z,-0.68
2019-01-23T22:22:03.661Z,-0.70
2019-01-23T22:22:24.555Z,-0.67
2019-01-23T22:22:47.820Z,-0.77
2019-01-23T22:23:08.734Z,-0.89
2019-01-23T22:23:29.743Z,-0.92
2019-01-23T22:23:50.615Z,-0.86
2019-01-23T22:24:11.518Z,-0.86
2019-01-23T22:24:32.414Z,-0.81
2019-01-23T22:24:53.322Z,-0.82
2019-01-23T22:25:17.130Z,-0.79
2019-01-23T22:25:38.038Z,-0.86
2019-01-23T22:25:59.052Z,-0.75
2019-01-23T22:26:19.951Z,-0.76
2019-01-23T22:26:43.518Z,-0.72
2019-01-23T22:27:04.414Z,-0.52
2019-01-23T22:27:25.315Z,-0.48
2019-01-23T22:27:46.251Z,-0.54
2019-01-23T22:28:09.086Z,-0.55
2019-01-23T22:28:30.090Z,-0.63
2019-01-23T22:28:53.873Z,-0.62
2019-01-23T22:29:14.777Z,-0.67
2019-01-23T22:29:35.676Z,-0.67
2019-01-23T22:29:56.570Z,-0.80
2019-01-23T22:30:31.988Z,-0.80
2019-01-23T22:30:52.902Z,-0.74
2019-01-23T22:31:13.814Z,-0.85
2019-01-23T22:31:34.716Z,-0.82
2019-01-23T22:31:55.609Z,-0.77
2019-01-23T22:32:16.535Z,-0.74
2019-01-23T22:32:37.425Z,-0.75
2019-01-23T22:33:06.663Z,-0.78
2019-01-23T22:33:27.513Z,-0.81
2019-01-23T22:33:48.445Z,-0.87
2019-01-23T22:34:09.359Z,-0.89
2019-01-23T22:34:30.379Z,-0.86
2019-01-23T22:34:51.282Z,-0.81
2019-01-23T22:35:14.192Z,-0.75
2019-01-23T22:35:35.096Z,-0.79
2019-01-23T22:35:58.854Z,-0.77
2019-01-23T22:36:19.819Z,-0.82
2019-01-23T22:36:40.729Z,-0.77
2019-01-23T22:37:01.638Z,-0.82
2019-01-23T22:37:22.640Z,-0.82
2019-01-23T22:37:44.980Z,-0.79
2019-01-23T22:38:12.101Z,-0.83
2019-01-23T22:38:33.016Z,-0.88
2019-01-23T22:38:53.954Z,-0.84
2019-01-23T22:39:14.842Z,-0.83
2019-01-23T22:39:35.743Z,-0.87
2019-01-23T22:39:56.641Z,-0.85
2019-01-23T22:40:20.754Z,-0.90
2019-01-23T22:40:41.672Z,-0.82
2019-01-23T22:41:02.715Z,-0.82
2019-01-23T22:41:23.634Z,-0.87
2019-01-23T22:41:44.547Z,-0.84
2019-01-23T22:45:13.535Z,-0.77
2019-01-23T22:48:14.487Z,-0.80
2019-01-23T22:51:15.402Z,-0.91
2019-01-23T22:54:18.432Z,-0.85
2019-01-23T22:57:19.348Z,-0.99
2019-01-23T23:00:37.398Z,-0.89
2019-01-23T23:03:41.785Z,-0.65
2019-01-23T23:06:42.716Z,-0.69
2019-01-23T23:09:43.668Z,-0.99
2019-01-23T23:12:48.728Z,-0.90
2019-01-23T23:15:49.660Z,-1.00
2019-01-23T23:18:50.581Z,-0.60
2019-01-23T23:21:51.606Z,-0.62
2019-01-23T23:24:55.276Z,-0.36
2019-01-23T23:27:58.429Z,-0.63
2019-01-23T23:30:59.395Z,-0.43
2019-01-23T23:34:09.786Z,-0.75
2019-01-23T23:37:09.055Z,-0.76
2019-01-23T23:40:11.699Z,-0.76
2019-01-23T23:43:12.660Z,-0.31
2019-01-23T23:46:13.716Z,-0.80
2019-01-23T23:49:14.872Z,-0.37
2019-01-23T23:52:15.806Z,-0.64
2019-01-23T23:55:16.786Z,-0.79
2019-01-23T23:58:19.607Z,-0.28
